TimePDT,TemperatureF,Dew PointF,Humidity,Sea Level PressureIn,VisibilityMPH,Wind Direction,Wind SpeedMPH,Gust SpeedMPH,PrecipitationIn,Events,Conditions,WindDirDegrees,DateUTC
12:15 AM,53.6,53.6,100,30.16,7.0,Calm,Calm,-,N/A,,Overcast,0,2013-05-13 07:15:00
12:35 AM,53.6,53.6,100,30.15,10.0,Calm,Calm,-,N/A,,Overcast,0,2013-05-13 07:35:00
12:55 AM,55.4,53.6,94,30.14,9.0,Calm,Calm,-,N/A,,Overcast,0,2013-05-13 07:55:00
1:15 AM,55.4,53.6,94,30.15,10.0,Calm,Calm,-,N/A,,Overcast,0,2013-05-13 08:15:00
1:35 AM,55.4,53.6,94,30.14,10.0,Calm,Calm,-,N/A,,Overcast,0,2013-05-13 08:35:00
1:55 AM,53.6,53.6,100,30.14,10.0,SE,3.5,-,N/A,,Overcast,140,2013-05-13 08:55:00
2:15 AM,53.6,53.6,100,30.13,10.0,Calm,Calm,-,N/A,,Overcast,0,2013-05-13 09:15:00
2:35 AM,53.6,53.6,100,30.12,10.0,SSE,3.5,-,N/A,,Overcast,150,2013-05-13 09:35:00
2:55 AM,53.6,53.6,100,30.13,10.0,Calm,Calm,-,N/A,,Overcast,0,2013-05-13 09:55:00
3:15 AM,53.6,53.6,100,30.13,10.0,Calm,Calm,-,N/A,,Overcast,0,2013-05-13 10:15:00
3:35 AM,53.6,53.6,100,30.13,10.0,Calm,Calm,-,N/A,,Overcast,0,2013-05-13 10:35:00
3:55 AM,53.6,53.6,100,30.12,10.0,Calm,Calm,-,N/A,,Overcast,0,2013-05-13 10:55:00
4:15 AM,53.6,53.6,100,30.12,10.0,Calm,Calm,-,N/A,,Overcast,0,2013-05-13 11:15:00
4:35 AM,53.6,51.8,94,30.12,10.0,Calm,Calm,-,N/A,,Overcast,0,2013-05-13 11:35:00
4:55 AM,53.6,51.8,94,30.12,10.0,Calm,Calm,-,N/A,,Overcast,0,2013-05-13 11:55:00
5:15 AM,53.6,51.8,94,30.12,7.0,Calm,Calm,-,N/A,,Overcast,0,2013-05-13 12:15:00
5:35 AM,53.6,53.6,100,30.13,5.0,Calm,Calm,-,N/A,,Overcast,0,2013-05-13 12:35:00
5:55 AM,53.6,53.6,100,30.14,2.5,Calm,Calm,-,N/A,,Overcast,0,2013-05-13 12:55:00
6:15 AM,53.6,53.6,100,30.15,2.5,Calm,Calm,-,N/A,,Overcast,0,2013-05-13 13:15:00
6:35 AM,53.6,53.6,100,30.15,4.0,Calm,Calm,-,N/A,,Overcast,0,2013-05-13 13:35:00
6:55 AM,53.6,53.6,100,30.16,1.8,WSW,4.6,-,N/A,,Overcast,240,2013-05-13 13:55:00
7:15 AM,53.6,53.6,100,30.16,2.5,Calm,Calm,-,N/A,,Overcast,0,2013-05-13 14:15:00
7:35 AM,53.6,53.6,100,30.16,9.0,SE,5.8,-,N/A,,Overcast,130,2013-05-13 14:35:00
7:55 AM,53.6,53.6,100,30.16,10.0,SSE,4.6,-,N/A,,Overcast,160,2013-05-13 14:55:00
8:15 AM,53.6,53.6,100,30.16,10.0,SSE,4.6,-,N/A,,Overcast,150,2013-05-13 15:15:00
8:35 AM,55.4,53.6,94,30.16,10.0,East,5.8,-,N/A,,Scattered Clouds,90,2013-05-13 15:35:00
8:55 AM,59.0,53.6,82,30.16,10.0,ESE,4.6,-,N/A,,Clear,110,2013-05-13 15:55:00
9:15 AM,59.0,53.6,82,30.17,10.0,Calm,Calm,-,N/A,,Clear,0,2013-05-13 16:15:00
9:35 AM,60.8,55.4,82,30.18,10.0,WNW,3.5,-,N/A,,Clear,300,2013-05-13 16:35:00
9:55 AM,62.6,55.4,77,30.18,10.0,NW,9.2,-,N/A,,Partly Cloudy,310,2013-05-13 16:55:00
10:15 AM,57.2,55.4,94,30.19,10.0,WNW,15.0,-,N/A,,Mostly Cloudy,300,2013-05-13 17:15:00
10:35 AM,57.2,53.6,88,30.20,10.0,NW,11.5,-,N/A,,Overcast,310,2013-05-13 17:35:00
10:55 AM,57.2,53.6,88,30.20,10.0,NW,12.7,-,N/A,,Overcast,310,2013-05-13 17:55:00
11:15 AM,57.2,55.4,94,30.20,10.0,WNW,12.7,-,N/A,,Overcast,300,2013-05-13 18:15:00
11:35 AM,57.2,53.6,88,30.21,10.0,WNW,8.1,-,N/A,,Overcast,300,2013-05-13 18:35:00
11:55 AM,59.0,55.4,88,30.21,10.0,NW,10.4,-,N/A,,Overcast,320,2013-05-13 18:55:00
12:15 PM,59.0,55.4,88,30.21,1.2,WNW,11.5,-,N/A,,Overcast,300,2013-05-13 19:15:00
12:35 PM,59.0,55.4,88,30.21,10.0,NW,8.1,-,N/A,,Mostly Cloudy,310,2013-05-13 19:35:00
1:35 PM,59.0,55.4,88,30.21,10.0,WNW,13.8,18.4,N/A,,Overcast,300,2013-05-13 20:35:00
1:55 PM,57.2,55.4,94,30.22,10.0,WNW,13.8,-,N/A,,Mostly Cloudy,300,2013-05-13 20:55:00
2:15 PM,57.2,55.4,94,30.22,10.0,WNW,15.0,-,N/A,,Mostly Cloudy,300,2013-05-13 21:15:00
2:35 PM,57.2,55.4,94,30.23,10.0,WNW,11.5,-,N/A,,Overcast,290,2013-05-13 21:35:00
2:55 PM,57.2,55.4,94,30.23,10.0,WNW,11.5,-,N/A,,Mostly Cloudy,290,2013-05-13 21:55:00
3:15 PM,57.2,55.4,94,30.23,10.0,WNW,12.7,-,N/A,,Partly Cloudy,290,2013-05-13 22:15:00
3:35 PM,55.4,53.6,94,30.23,10.0,WNW,12.7,-,N/A,,Mostly Cloudy,290,2013-05-13 22:35:00
3:55 PM,55.4,53.6,94,30.23,10.0,NW,16.1,-,N/A,,Overcast,310,2013-05-13 22:55:00
4:55 PM,55.4,51.8,88,30.23,10.0,NW,9.2,-,N/A,,Overcast,310,2013-05-13 23:55:00
5:15 PM,55.4,51.8,88,30.22,10.0,NW,9.2,-,N/A,,Overcast,310,2013-05-14 00:15:00
5:35 PM,55.4,50.0,82,30.22,10.0,NW,12.7,-,N/A,,Overcast,320,2013-05-14 00:35:00
5:55 PM,55.4,50.0,82,30.21,10.0,NNW,9.2,-,N/A,,Overcast,340,2013-05-14 00:55:00
6:15 PM,55.4,50.0,82,30.21,10.0,NNW,6.9,-,N/A,,Overcast,330,2013-05-14 01:15:00
6:35 PM,55.4,50.0,82,30.20,10.0,NW,9.2,-,N/A,,Overcast,320,2013-05-14 01:35:00
6:55 PM,57.2,51.8,82,30.19,10.0,North,6.9,-,N/A,,Overcast,350,2013-05-14 01:55:00
7:15 PM,57.2,50.0,77,30.18,10.0,NNW,6.9,-,N/A,,Scattered Clouds,340,2013-05-14 02:15:00
7:35 PM,57.2,50.0,77,30.18,10.0,Calm,Calm,-,N/A,,Scattered Clouds,0,2013-05-14 02:35:00
7:55 PM,55.4,51.8,88,30.18,10.0,WNW,8.1,-,N/A,,Partly Cloudy,290,2013-05-14 02:55:00
8:15 PM,53.6,50.0,88,30.18,10.0,WNW,8.1,-,N/A,,Clear,290,2013-05-14 03:15:00
8:35 PM,51.8,50.0,94,30.18,10.0,WNW,10.4,-,N/A,,Partly Cloudy,290,2013-05-14 03:35:00
8:55 PM,51.8,50.0,94,30.18,10.0,NW,11.5,-,N/A,,Scattered Clouds,310,2013-05-14 03:55:00
9:15 PM,51.8,50.0,94,30.19,10.0,NW,8.1,-,N/A,,Mostly Cloudy,310,2013-05-14 04:15:00
9:35 PM,51.8,50.0,94,30.19,10.0,NW,9.2,-,N/A,,Overcast,320,2013-05-14 04:35:00
9:55 PM,53.6,50.0,88,30.19,10.0,NW,6.9,-,N/A,,Overcast,320,2013-05-14 04:55:00
10:15 PM,53.6,50.0,88,30.20,10.0,NW,6.9,-,N/A,,Overcast,320,2013-05-14 05:15:00
10:35 PM,53.6,50.0,88,30.19,10.0,North,6.9,-,N/A,,Overcast,350,2013-05-14 05:35:00
10:55 PM,51.8,50.0,94,30.19,10.0,NW,8.1,-,N/A,,Overcast,310,2013-05-14 05:55:00
11:15 PM,51.8,50.0,94,30.19,10.0,NW,9.2,-,N/A,,Overcast,310,2013-05-14 06:15:00
11:35 PM,53.6,50.0,88,30.19,10.0,NW,6.9,-,N/A,,Overcast,310,2013-05-14 06:35:00
11:55 PM,53.6,50.0,88,30.18,10.0,NW,6.9,-,N/A,,Overcast,310,2013-05-14 06:55:00